Time;durP1;ratioP1;P1;durP2;ratioP2;P2;SDS_P1;SDS_P2;PMS_P1;PMS_P2;Temp;Humidity;BMP_temperature;BMP_pressure;BME280_temperature;BME280_humidity;BME280_pressure;Samples;Min_cycle;Max_cycle;Signal;HPM_P1;HPM_P2
2022/09/16 00:02:53;;;;;;;5.13;4.63;;;22.50;99.90;;;;;;6121862;28;89170;-63
2022/09/16 00:05:55;;;;;;;5.30;4.80;;;22.50;99.90;;;;;;6122521;28;89059;-63
2022/09/16 00:09:00;;;;;;;4.90;4.50;;;22.50;99.90;;;;;;6131025;28;89069;-63
2022/09/16 00:12:03;;;;;;;4.80;4.40;;;22.50;99.90;;;;;;6137199;28;89565;-63
2022/09/16 00:15:06;;;;;;;5.00;4.60;;;22.50;99.90;;;;;;6130141;28;87875;-63
2022/09/16 00:18:08;;;;;;;4.55;4.18;;;22.50;99.90;;;;;;6122064;28;88324;-63
2022/09/16 00:21:11;;;;;;;5.00;4.60;;;22.50;99.90;;;;;;6127882;28;89403;-63
2022/09/16 00:24:15;;;;;;;5.00;4.60;;;22.50;99.90;;;;;;6129811;28;89124;-63
2022/09/16 00:27:17;;;;;;;4.65;4.13;;;22.50;99.90;;;;;;6131745;28;90461;-63
2022/09/16 00:30:19;;;;;;;5.10;4.70;;;22.40;99.90;;;;;;6129708;28;90361;-63
2022/09/16 00:33:21;;;;;;;4.25;3.95;;;22.50;99.90;;;;;;6126653;28;89508;-63
2022/09/16 00:36:23;;;;;;;4.93;4.53;;;22.50;99.90;;;;;;6131818;28;88001;-63
2022/09/16 00:39:27;;;;;;;4.50;4.10;;;22.40;99.90;;;;;;6128638;28;89305;-63
2022/09/16 00:42:29;;;;;;;5.25;4.55;;;22.50;99.90;;;;;;6130686;28;89345;-63
2022/09/16 00:45:31;;;;;;;4.55;4.15;;;22.50;99.90;;;;;;6133132;28;89132;-63
2022/09/16 00:48:34;;;;;;;4.50;4.10;;;22.40;99.90;;;;;;6135066;28;88430;-63
2022/09/16 00:51:37;;;;;;;4.95;4.45;;;22.40;99.90;;;;;;6133421;28;89101;-63
2022/09/16 00:54:42;;;;;;;4.55;4.15;;;22.50;99.90;;;;;;6131854;28;89165;-63
2022/09/16 00:57:45;;;;;;;4.60;4.20;;;22.40;99.90;;;;;;6113792;28;90094;-63
2022/09/16 01:00:47;;;;;;;4.70;4.30;;;22.40;99.90;;;;;;6114110;28;89172;-63
2022/09/16 01:03:53;;;;;;;4.63;4.22;;;22.40;99.90;;;;;;6136135;28;89050;-63
2022/09/16 01:06:56;;;;;;;4.43;4.03;;;22.40;99.90;;;;;;6135067;28;88168;-63
2022/09/16 01:09:59;;;;;;;4.38;3.97;;;22.40;99.90;;;;;;6142353;28;89068;-63
2022/09/16 01:13:06;;;;;;;4.38;3.97;;;22.50;99.90;;;;;;6140333;28;89211;-63
2022/09/16 01:16:14;;;;;;;4.20;3.90;;;22.40;99.90;;;;;;6134620;28;89056;-63
2022/09/16 01:19:32;;;;;;;4.63;4.22;;;22.50;99.90;;;;;;6135316;28;87261;-63
2022/09/16 01:22:49;;;;;;;4.47;4.07;;;22.50;99.90;;;;;;6122030;28;90252;-63
2022/09/16 01:26:12;;;;;;;4.32;3.95;;;22.50;99.90;;;;;;6120063;28;89699;-63
2022/09/16 01:29:33;;;;;;;3.97;3.67;;;22.40;99.90;;;;;;6133822;28;90147;-63
2022/09/16 01:32:43;;;;;;;4.00;3.70;;;22.40;99.90;;;;;;6134216;28;91670;-63
2022/09/16 01:35:58;;;;;;;3.90;3.60;;;22.40;99.90;;;;;;6133433;28;89035;-63
2022/09/16 01:39:09;;;;;;;3.80;3.50;;;22.40;99.90;;;;;;6129084;28;91990;-63
2022/09/16 01:42:23;;;;;;;3.80;3.50;;;22.40;99.90;;;;;;6127026;28;89163;-63
2022/09/16 01:45:34;;;;;;;3.70;3.40;;;22.40;99.90;;;;;;6134992;28;89408;-63
2022/09/16 01:48:41;;;;;;;3.90;3.60;;;22.40;99.90;;;;;;6130821;28;89109;-63
2022/09/16 01:51:50;;;;;;;4.07;3.67;;;22.50;99.90;;;;;;6129576;28;88375;-63
2022/09/16 01:54:57;;;;;;;4.32;3.92;;;22.40;99.90;;;;;;6131161;28;88653;-63
2022/09/16 01:58:04;;;;;;;4.78;4.28;;;22.50;99.90;;;;;;6131961;28;89477;-63
2022/09/16 02:01:12;;;;;;;3.60;3.30;;;22.50;99.90;;;;;;6133674;28;90364;-63
2022/09/16 02:04:24;;;;;;;3.92;3.53;;;22.40;99.90;;;;;;6121458;28;89089;-63
2022/09/16 02:07:31;;;;;;;3.95;3.53;;;22.40;99.90;;;;;;6118009;28;89173;-63
2022/09/16 02:10:38;;;;;;;3.70;3.40;;;22.40;99.90;;;;;;6145917;28;89173;-63
2022/09/16 02:13:43;;;;;;;3.72;3.42;;;22.40;99.90;;;;;;6110404;28;89138;-63
2022/09/16 02:16:51;;;;;;;3.63;3.33;;;22.40;99.90;;;;;;6118935;28;89157;-63
2022/09/16 02:20:00;;;;;;;3.38;3.08;;;22.40;99.90;;;;;;6124887;28;89686;-64
2022/09/16 02:23:05;;;;;;;3.60;3.30;;;22.40;99.90;;;;;;6134078;28;88335;-63
2022/09/16 02:26:12;;;;;;;3.70;3.40;;;22.40;99.90;;;;;;6134770;28;88229;-63
2022/09/16 02:29:19;;;;;;;3.80;3.50;;;22.40;99.90;;;;;;6134246;28;89028;-63
2022/09/16 02:32:24;;;;;;;3.65;3.35;;;22.40;99.90;;;;;;6132753;28;90147;-63
2022/09/16 02:35:30;;;;;;;3.92;3.63;;;22.40;99.90;;;;;;6133294;28;87972;-63
2022/09/16 02:38:38;;;;;;;4.35;3.75;;;22.40;99.90;;;;;;6133203;28;89397;-63
2022/09/16 02:41:41;;;;;;;3.65;3.35;;;22.40;99.90;;;;;;6133454;28;89036;-63
2022/09/16 02:44:44;;;;;;;3.58;3.28;;;22.30;99.90;;;;;;6121385;28;89157;-63
2022/09/16 02:47:57;;;;;;;4.10;3.70;;;22.40;99.90;;;;;;6120962;28;89196;-63
2022/09/16 02:51:05;;;;;;;3.45;3.17;;;22.40;99.90;;;;;;6111312;28;91405;-63
2022/09/16 02:54:13;;;;;;;3.63;3.33;;;22.40;99.90;;;;;;6131914;28;88314;-63
2022/09/16 02:57:15;;;;;;;3.35;3.05;;;22.30;99.90;;;;;;6132514;28;89542;-63
2022/09/16 03:00:18;;;;;;;3.80;3.40;;;22.40;99.90;;;;;;6130693;28;90436;-63
2022/09/16 03:03:20;;;;;;;3.35;3.05;;;22.40;99.90;;;;;;6127863;28;90039;-63
2022/09/16 03:06:25;;;;;;;3.17;2.90;;;22.40;99.90;;;;;;6135757;28;89156;-63
2022/09/16 03:09:28;;;;;;;3.00;2.80;;;22.40;99.90;;;;;;6129273;28;88263;-63
2022/09/16 03:12:48;;;;;;;5.57;3.83;;;22.40;99.90;;;;;;6139284;28;89087;-63
2022/09/16 03:15:59;;;;;;;3.40;3.10;;;22.30;99.90;;;;;;6111642;28;88042;-63
2022/09/16 03:19:11;;;;;;;3.90;3.20;;;22.40;99.90;;;;;;6131950;28;89106;-63
2022/09/16 03:22:22;;;;;;;3.33;2.90;;;22.40;99.90;;;;;;6120367;28;87971;-63
2022/09/16 03:25:44;;;;;;;3.75;3.30;;;22.40;99.90;;;;;;6130859;28;88177;-63
2022/09/16 03:28:58;;;;;;;3.30;3.00;;;22.30;99.90;;;;;;6133229;28;89392;-63
2022/09/16 03:32:07;;;;;;;3.40;3.10;;;22.40;99.90;;;;;;6131240;28;89159;-63
2022/09/16 03:35:15;;;;;;;3.17;2.88;;;22.40;99.90;;;;;;6130935;28;90091;-63
2022/09/16 03:38:19;;;;;;;3.20;2.90;;;22.40;99.90;;;;;;6129184;28;89004;-63
2022/09/16 03:41:22;;;;;;;3.28;2.97;;;22.40;99.90;;;;;;6132048;28;88009;-63
2022/09/16 03:44:32;;;;;;;3.03;2.78;;;22.30;99.90;;;;;;6131368;28;90421;-63
2022/09/16 03:47:34;;;;;;;3.20;2.90;;;22.30;99.90;;;;;;6131198;28;89112;-63
2022/09/16 03:50:36;;;;;;;3.08;2.88;;;22.40;99.90;;;;;;6126153;28;88565;-63
2022/09/16 03:53:40;;;;;;;3.13;2.83;;;22.40;99.90;;;;;;6119777;28;89395;-63
2022/09/16 03:56:42;;;;;;;2.78;2.58;;;22.40;99.90;;;;;;6133320;28;88485;-63
2022/09/16 03:59:44;;;;;;;2.92;2.72;;;22.40;99.90;;;;;;6130856;28;89080;-63
2022/09/16 04:02:46;;;;;;;2.83;2.63;;;22.40;99.90;;;;;;6131896;28;89006;-63
2022/09/16 04:05:53;;;;;;;3.40;3.10;;;22.30;99.90;;;;;;6129915;28;90235;-63
2022/09/16 04:09:00;;;;;;;3.33;3.03;;;22.40;99.90;;;;;;6130625;28;87937;-64
2022/09/16 04:12:02;;;;;;;2.80;2.60;;;22.30;99.90;;;;;;6132887;28;91726;-64
2022/09/16 04:15:04;;;;;;;3.10;2.80;;;22.40;99.90;;;;;;6124031;28;88715;-63
2022/09/16 04:18:06;;;;;;;2.95;2.75;;;22.30;99.90;;;;;;6121270;28;88985;-64
2022/09/16 04:21:09;;;;;;;2.90;2.70;;;22.40;99.90;;;;;;6132750;28;89370;-63
2022/09/16 04:24:13;;;;;;;3.10;2.80;;;22.40;99.90;;;;;;6132768;28;89703;-63
2022/09/16 04:27:15;;;;;;;2.65;2.45;;;22.40;99.90;;;;;;6130483;28;88397;-63
2022/09/16 04:30:17;;;;;;;2.70;2.50;;;22.40;99.90;;;;;;6130323;28;89154;-63
2022/09/16 04:33:20;;;;;;;2.80;2.60;;;22.30;99.90;;;;;;6130679;28;89113;-63
2022/09/16 04:36:22;;;;;;;2.85;2.65;;;22.30;99.90;;;;;;6129047;28;90970;-63
2022/09/16 04:39:25;;;;;;;2.65;2.42;;;22.40;99.90;;;;;;6129162;28;90738;-64
2022/09/16 04:42:27;;;;;;;3.00;2.67;;;22.30;99.90;;;;;;6126740;28;89148;-63
2022/09/16 04:45:29;;;;;;;2.80;2.60;;;22.30;99.90;;;;;;6131932;28;90063;-63
2022/09/16 04:48:31;;;;;;;2.83;2.63;;;22.40;99.90;;;;;;6131410;28;89028;-63
2022/09/16 04:51:33;;;;;;;4.05;2.90;;;22.30;99.90;;;;;;6130600;28;87964;-63
2022/09/16 04:58:15;;;;;;;3.20;2.70;;;22.30;99.90;;;;;;6130756;28;86501;-63
2022/09/16 05:01:20;;;;;;;3.28;2.97;;;22.40;99.90;;;;;;6127695;28;89205;-63
2022/09/16 05:04:22;;;;;;;3.17;2.88;;;22.30;99.90;;;;;;6129063;28;88980;-64
2022/09/16 05:07:24;;;;;;;3.42;3.13;;;22.30;99.90;;;;;;6128721;28;89993;-63
2022/09/16 05:10:28;;;;;;;3.15;2.85;;;22.40;99.90;;;;;;6133285;28;89100;-63
2022/09/16 05:13:30;;;;;;;3.47;3.17;;;22.50;99.90;;;;;;6128171;28;89069;-63
2022/09/16 05:16:32;;;;;;;3.30;3.00;;;22.40;99.90;;;;;;6127986;28;88044;-62
2022/09/16 05:19:34;;;;;;;3.55;3.25;;;22.50;99.90;;;;;;6129030;28;89320;-63
2022/09/16 05:22:37;;;;;;;3.13;2.88;;;22.50;99.90;;;;;;6129587;28;89074;-63
2022/09/16 05:25:40;;;;;;;3.28;2.97;;;22.50;99.90;;;;;;6130742;28;89094;-63
2022/09/16 05:28:43;;;;;;;2.85;2.65;;;22.50;99.90;;;;;;6129333;28;88910;-63
2022/09/16 05:31:46;;;;;;;3.50;2.78;;;22.50;99.90;;;;;;6131993;28;89437;-63
2022/09/16 05:34:49;;;;;;;3.10;2.80;;;22.50;99.90;;;;;;6134517;28;89056;-63
2022/09/16 05:37:51;;;;;;;3.00;2.70;;;22.50;99.90;;;;;;6131852;28;90012;-63
2022/09/16 05:40:59;;;;;;;3.03;2.70;;;22.50;99.90;;;;;;6124029;28;88305;-63
2022/09/16 05:44:01;;;;;;;3.08;2.78;;;22.50;99.90;;;;;;6123255;28;87919;-63
2022/09/16 05:47:03;;;;;;;2.60;2.40;;;22.50;99.90;;;;;;6134748;28;89567;-63
2022/09/16 05:50:06;;;;;;;3.80;2.78;;;22.50;99.90;;;;;;6134218;28;90820;-63
2022/09/16 05:53:08;;;;;;;3.00;2.70;;;22.50;99.90;;;;;;6133950;28;89289;-63
2022/09/16 05:56:15;;;;;;;3.67;2.70;;;22.50;99.90;;;;;;6134608;28;89275;-63
2022/09/16 05:59:17;;;;;;;2.92;2.63;;;22.40;99.90;;;;;;6132443;28;88456;-63
2022/09/16 06:02:19;;;;;;;3.63;2.70;;;22.40;99.90;;;;;;6117261;28;88119;-63
2022/09/16 06:05:22;;;;;;;3.38;2.90;;;22.50;99.90;;;;;;6124309;28;89148;-63
2022/09/16 06:08:24;;;;;;;3.05;2.65;;;22.40;99.90;;;;;;6133473;28;89958;-64
2022/09/16 06:11:28;;;;;;;3.42;2.63;;;22.50;99.90;;;;;;6140229;28;88915;-63
2022/09/16 06:14:30;;;;;;;3.25;2.60;;;22.40;99.90;;;;;;6129069;28;89618;-63
2022/09/16 06:17:32;;;;;;;3.03;2.72;;;22.40;99.90;;;;;;6126715;28;87079;-63
2022/09/16 06:20:36;;;;;;;3.17;2.85;;;22.40;99.90;;;;;;6131231;28;89051;-63
2022/09/16 06:23:39;;;;;;;3.47;2.85;;;22.40;99.90;;;;;;6119405;28;89008;-63
2022/09/16 06:26:45;;;;;;;3.20;2.40;;;22.40;99.90;;;;;;6131592;28;89107;-63
2022/09/16 06:29:47;;;;;;;3.78;2.50;;;22.40;99.90;;;;;;6127489;28;88692;-63
2022/09/16 06:32:49;;;;;;;3.13;2.55;;;22.40;99.90;;;;;;6134194;28;89078;-63
2022/09/16 06:35:52;;;;;;;2.80;2.40;;;22.40;99.90;;;;;;6133086;28;89207;-63
2022/09/16 06:38:54;;;;;;;3.00;2.53;;;22.40;99.90;;;;;;6129380;28;90051;-63
2022/09/16 06:41:58;;;;;;;3.20;2.70;;;22.40;99.90;;;;;;6133878;28;89082;-63
2022/09/16 06:45:02;;;;;;;3.13;2.53;;;22.40;99.90;;;;;;6131259;28;88908;-64
2022/09/16 06:48:04;;;;;;;3.70;2.30;;;22.40;99.90;;;;;;6133415;28;89147;-63
2022/09/16 06:51:07;;;;;;;4.68;2.58;;;22.40;99.90;;;;;;6123600;28;89162;-63
2022/09/16 06:54:11;;;;;;;2.72;2.30;;;22.40;99.90;;;;;;6128061;28;90367;-63
2022/09/16 06:57:15;;;;;;;2.88;2.20;;;22.40;99.90;;;;;;6121923;28;87766;-63
2022/09/16 07:00:17;;;;;;;3.58;2.17;;;22.40;99.90;;;;;;6121979;28;88296;-63
2022/09/16 07:03:19;;;;;;;3.50;2.30;;;22.40;99.90;;;;;;6126800;28;89055;-63
2022/09/16 07:06:24;;;;;;;3.40;2.10;;;22.40;99.90;;;;;;6131147;28;89608;-63
2022/09/16 07:09:26;;;;;;;3.17;2.20;;;22.40;99.90;;;;;;6130549;28;88788;-63
2022/09/16 07:12:29;;;;;;;2.30;2.10;;;22.40;99.90;;;;;;6121433;28;88977;-63
2022/09/16 07:15:31;;;;;;;2.20;2.00;;;22.40;99.90;;;;;;6120536;28;89112;-63
2022/09/16 07:18:34;;;;;;;2.08;1.77;;;22.40;99.90;;;;;;6132898;28;88887;-63
2022/09/16 07:21:36;;;;;;;1.85;1.70;;;22.40;99.90;;;;;;6117206;28;89126;-63
2022/09/16 07:24:38;;;;;;;2.05;1.85;;;22.40;99.90;;;;;;6124196;28;89045;-63
2022/09/16 07:27:41;;;;;;;2.72;2.03;;;22.40;99.90;;;;;;6132420;28;90709;-63
2022/09/16 07:30:43;;;;;;;2.15;1.92;;;22.40;99.90;;;;;;6116731;28;88370;-64
2022/09/16 07:33:47;;;;;;;2.10;1.90;;;22.40;99.90;;;;;;6126775;28;89232;-63
2022/09/16 07:36:49;;;;;;;2.28;2.03;;;22.40;99.90;;;;;;6129557;28;89450;-63
2022/09/16 07:39:51;;;;;;;2.72;2.00;;;22.40;99.90;;;;;;6123794;28;89067;-62
2022/09/16 07:42:55;;;;;;;5.95;2.65;;;22.40;99.90;;;;;;6131013;28;89597;-62
2022/09/16 07:45:57;;;;;;;6.43;2.53;;;22.40;99.90;;;;;;6132573;28;89070;-62
2022/09/16 07:49:01;;;;;;;3.78;2.13;;;22.40;99.90;;;;;;6124678;28;89237;-62
2022/09/16 07:52:03;;;;;;;3.78;2.20;;;22.40;99.90;;;;;;6131176;28;89130;-62
2022/09/16 07:55:05;;;;;;;3.35;2.20;;;22.40;99.90;;;;;;6124164;28;88008;-62
2022/09/16 07:58:09;;;;;;;3.15;2.13;;;22.40;99.90;;;;;;6131449;28;89477;-62
2022/09/16 08:01:12;;;;;;;2.67;1.95;;;22.40;99.90;;;;;;6131433;28;88294;-62
2022/09/16 08:04:14;;;;;;;2.15;1.92;;;22.40;99.90;;;;;;6131914;28;89055;-63
2022/09/16 08:07:16;;;;;;;2.58;2.00;;;22.30;99.90;;;;;;6135723;28;89346;-62
2022/09/16 08:10:18;;;;;;;3.83;2.08;;;22.40;99.90;;;;;;6130503;28;90279;-62
2022/09/16 08:13:22;;;;;;;3.75;2.03;;;22.40;99.90;;;;;;6132135;28;88016;-62
2022/09/16 08:16:24;;;;;;;3.30;2.05;;;22.30;99.90;;;;;;6131267;28;88989;-62
2022/09/16 08:19:26;;;;;;;2.05;1.85;;;22.40;99.90;;;;;;6126960;28;88142;-62
2022/09/16 08:22:28;;;;;;;4.10;1.90;;;22.40;99.90;;;;;;6131518;28;89366;-62
2022/09/16 08:25:30;;;;;;;3.28;1.90;;;22.40;99.90;;;;;;6129014;28;89741;-62
2022/09/16 08:28:33;;;;;;;2.65;1.90;;;22.30;99.90;;;;;;6130072;28;89819;-62
2022/09/16 08:31:35;;;;;;;3.42;2.45;;;22.40;99.90;;;;;;6129689;28;87299;-62
2022/09/16 08:34:39;;;;;;;2.70;2.05;;;22.40;99.90;;;;;;6131642;28;89196;-62
2022/09/16 08:37:41;;;;;;;2.17;1.98;;;22.40;99.90;;;;;;6114375;28;89347;-63
2022/09/16 08:40:45;;;;;;;2.10;1.90;;;22.40;99.90;;;;;;6130192;28;89928;-62
2022/09/16 08:43:57;;;;;;;2.00;1.70;;;22.40;99.90;;;;;;6130881;28;89208;-62
2022/09/16 08:47:02;;;;;;;2.42;1.90;;;22.40;99.90;;;;;;6127164;28;89151;-62
2022/09/16 08:50:10;;;;;;;3.30;2.20;;;22.30;99.90;;;;;;6122812;28;89132;-62
2022/09/16 08:53:17;;;;;;;3.45;2.42;;;22.30;99.90;;;;;;6129400;28;89143;-62
2022/09/16 08:56:22;;;;;;;2.30;1.92;;;22.40;99.90;;;;;;6121080;28;89126;-62
2022/09/16 08:59:30;;;;;;;2.33;1.80;;;22.40;99.90;;;;;;6119043;28;89526;-62
2022/09/16 09:02:41;;;;;;;3.38;2.30;;;22.40;99.90;;;;;;6130747;28;88379;-62
2022/09/16 09:05:50;;;;;;;3.00;2.33;;;22.40;99.90;;;;;;6111760;28;87997;-62
2022/09/16 09:09:00;;;;;;;2.20;2.00;;;22.40;99.90;;;;;;6112150;28;89102;-62
2022/09/16 09:12:09;;;;;;;2.13;1.90;;;22.40;99.90;;;;;;6123301;28;90056;-62
2022/09/16 09:15:34;;;;;;;2.30;1.85;;;22.30;99.90;;;;;;6135460;28;89103;-62
2022/09/16 09:18:41;;;;;;;2.65;2.10;;;22.40;99.90;;;;;;6124577;28;90131;-62
2022/09/16 09:21:53;;;;;;;2.30;2.10;;;22.30;99.90;;;;;;6131485;28;89208;-62
2022/09/16 09:25:14;;;;;;;2.22;2.03;;;22.30;99.90;;;;;;6133020;28;89103;-62
2022/09/16 09:28:33;;;;;;;2.22;1.95;;;22.40;99.90;;;;;;6129409;28;89461;-61
2022/09/16 09:31:47;;;;;;;2.70;2.15;;;22.40;99.90;;;;;;6134266;28;89022;-62
2022/09/16 09:35:06;;;;;;;2.90;2.20;;;22.40;99.90;;;;;;6135176;28;87286;-61
2022/09/16 09:38:34;;;;;;;2.10;1.90;;;22.40;99.90;;;;;;6135143;28;89056;-61
2022/09/16 09:41:41;;;;;;;2.00;1.80;;;22.30;99.90;;;;;;6127528;28;89047;-61
2022/09/16 09:44:50;;;;;;;2.00;1.90;;;22.40;99.90;;;;;;6129301;28;90064;-61
2022/09/16 09:47:57;;;;;;;2.38;2.05;;;22.40;99.90;;;;;;6133218;28;89227;-61
2022/09/16 09:51:04;;;;;;;2.92;2.20;;;22.40;99.90;;;;;;6130249;28;88319;-61
2022/09/16 09:54:28;;;;;;;3.20;2.33;;;22.40;99.90;;;;;;6134389;28;88784;-61
2022/09/16 09:57:34;;;;;;;4.10;2.22;;;22.40;99.90;;;;;;6142295;28;89397;-61
2022/09/16 10:00:36;;;;;;;2.38;2.17;;;22.40;99.90;;;;;;6126984;28;89168;-61
2022/09/16 10:03:40;;;;;;;2.55;2.10;;;22.40;99.90;;;;;;6121947;28;89070;-61
2022/09/16 10:06:44;;;;;;;2.75;2.20;;;22.30;99.90;;;;;;6135019;28;88400;-62
2022/09/16 10:09:51;;;;;;;2.33;2.13;;;22.40;99.90;;;;;;6129819;28;88974;-61
2022/09/16 10:12:53;;;;;;;2.38;2.17;;;22.40;99.90;;;;;;6133851;28;89242;-61
2022/09/16 10:16:09;;;;;;;2.47;2.28;;;22.40;99.90;;;;;;6132789;28;90251;-62
2022/09/16 10:19:21;;;;;;;2.33;2.13;;;22.40;99.90;;;;;;6131813;28;89070;-61
2022/09/16 10:22:27;;;;;;;2.90;2.20;;;22.40;99.90;;;;;;6130215;28;89097;-61
2022/09/16 10:25:31;;;;;;;3.28;2.20;;;22.40;99.90;;;;;;6118487;28;89309;-61
2022/09/16 10:28:34;;;;;;;3.38;2.30;;;22.40;99.90;;;;;;6132491;28;89180;-61
2022/09/16 10:31:38;;;;;;;3.85;2.85;;;22.30;99.90;;;;;;6133387;28;89616;-61
2022/09/16 10:34:41;;;;;;;3.80;2.13;;;22.40;99.90;;;;;;6132841;28;89008;-61
2022/09/16 10:37:50;;;;;;;2.60;2.30;;;22.40;99.90;;;;;;6131665;28;88294;-61
2022/09/16 10:40:53;;;;;;;2.92;2.40;;;22.40;99.90;;;;;;6130712;28;89132;-61
2022/09/16 10:43:59;;;;;;;3.55;2.35;;;22.30;99.90;;;;;;6133388;28;89087;-61
2022/09/16 10:47:04;;;;;;;3.28;2.60;;;22.40;99.90;;;;;;6132152;28;90012;-61
2022/09/16 10:50:16;;;;;;;3.65;3.10;;;22.40;99.90;;;;;;6130993;28;89288;-61
2022/09/16 10:53:22;;;;;;;4.00;2.88;;;22.40;99.90;;;;;;6130895;28;89419;-61
2022/09/16 10:56:28;;;;;;;5.15;2.97;;;22.40;99.90;;;;;;6132636;28;89225;-61
2022/09/16 10:59:30;;;;;;;4.03;2.80;;;22.40;99.90;;;;;;6128293;28;89471;-61
2022/09/16 11:02:56;;;;;;;4.03;2.70;;;22.40;99.90;;;;;;6128431;28;89391;-61
2022/09/16 11:06:12;;;;;;;3.97;3.00;;;22.40;99.90;;;;;;6129559;28;89155;-61
2022/09/16 11:09:19;;;;;;;2.65;2.45;;;22.40;99.90;;;;;;6129345;28;88486;-61
2022/09/16 11:12:43;;;;;;;3.25;2.95;;;22.40;99.90;;;;;;6129257;28;89262;-62
2022/09/16 11:15:59;;;;;;;3.15;2.85;;;22.30;99.90;;;;;;6127690;28;89109;-61
2022/09/16 11:19:09;;;;;;;2.90;2.67;;;22.40;99.90;;;;;;6129402;28;90088;-61
2022/09/16 11:22:23;;;;;;;3.90;2.67;;;22.40;99.90;;;;;;6131969;28;87997;-61
2022/09/16 11:25:36;;;;;;;3.70;2.97;;;22.40;99.90;;;;;;6130104;28;89085;-61
2022/09/16 11:29:04;;;;;;;3.92;2.75;;;22.40;99.90;;;;;;6130573;28;89052;-61
2022/09/16 11:32:18;;;;;;;3.63;2.60;;;22.40;99.90;;;;;;6129551;28;88122;-61
2022/09/16 11:35:33;;;;;;;2.80;2.60;;;22.40;99.90;;;;;;6130931;28;89410;-61
2022/09/16 11:38:44;;;;;;;3.03;2.78;;;22.40;99.90;;;;;;6127705;28;89239;-61
2022/09/16 11:41:55;;;;;;;3.05;2.75;;;22.40;99.90;;;;;;6129188;28;87220;-61
2022/09/16 11:45:06;;;;;;;2.95;2.75;;;22.40;99.90;;;;;;6127284;28;89240;-62
2022/09/16 11:48:49;;;;;;;3.83;3.10;;;22.40;99.90;;;;;;6130285;28;89331;-61
2022/09/16 11:52:03;;;;;;;3.00;2.70;;;22.40;99.90;;;;;;6129230;28;89094;-61
2022/09/16 11:55:28;;;;;;;2.80;2.60;;;22.40;99.90;;;;;;6129999;28;89442;-61
2022/09/16 11:58:38;;;;;;;2.70;2.50;;;22.40;99.90;;;;;;6131114;28;89422;-61
2022/09/16 12:01:44;;;;;;;2.70;2.47;;;22.40;99.90;;;;;;6129134;28;87900;-63
2022/09/16 12:04:52;;;;;;;4.90;2.72;;;22.40;99.90;;;;;;6132038;28;89145;-63
2022/09/16 12:08:02;;;;;;;3.45;2.60;;;22.40;99.90;;;;;;6131698;28;89088;-62
2022/09/16 12:11:16;;;;;;;714.22;222.45;;;22.40;99.90;;;;;;6129162;28;89106;-63
2022/09/16 12:14:23;;;;;;;94.97;29.67;;;22.50;99.90;;;;;;6130835;28;88439;-62
2022/09/16 12:17:29;;;;;;;81.07;25.05;;;22.50;99.90;;;;;;6130566;28;89142;-63
2022/09/16 12:20:36;;;;;;;71.43;20.90;;;22.60;99.90;;;;;;6130610;28;90525;-64
2022/09/16 12:23:44;;;;;;;56.58;17.90;;;22.60;99.90;;;;;;6127438;28;90031;-63
2022/09/16 12:26:52;;;;;;;55.70;17.92;;;22.60;99.90;;;;;;6127489;28;89435;-64
2022/09/16 12:29:59;;;;;;;51.80;16.90;;;22.70;99.90;;;;;;6129326;28;89051;-64
2022/09/16 12:33:04;;;;;;;40.72;14.55;;;22.70;99.90;;;;;;6130027;28;89492;-64
2022/09/16 12:36:11;;;;;;;42.95;13.95;;;22.80;99.90;;;;;;6131259;28;89248;-64
2022/09/16 12:39:13;;;;;;;37.33;13.20;;;22.80;99.90;;;;;;6131400;28;87981;-64
2022/09/16 12:42:55;;;;;;;30.33;13.02;;;22.90;99.90;;;;;;6134033;28;88034;-64
2022/09/16 12:46:21;;;;;;;35.13;12.50;;;22.90;99.90;;;;;;6131915;28;88636;-64
2022/09/16 12:49:47;;;;;;;32.03;11.77;;;22.90;99.90;;;;;;6128599;28;89020;-63
2022/09/16 12:53:18;;;;;;;34.28;12.32;;;23.00;99.90;;;;;;6131412;28;89965;-63
2022/09/16 12:56:33;;;;;;;30.10;11.23;;;23.00;99.90;;;;;;6131057;28;88993;-64
2022/09/16 12:59:53;;;;;;;29.20;11.02;;;23.00;99.90;;;;;;6128807;28;89117;-64
2022/09/16 13:02:58;;;;;;;23.92;10.65;;;23.00;99.90;;;;;;6131786;28;89114;-64
2022/09/16 13:06:06;;;;;;;27.13;10.20;;;23.00;99.90;;;;;;6118723;28;89257;-64
2022/09/16 13:09:20;;;;;;;25.42;10.20;;;23.00;99.90;;;;;;6115485;28;89314;-64
2022/09/16 13:12:26;;;;;;;22.73;9.38;;;23.00;99.90;;;;;;6124349;28;89032;-64
2022/09/16 13:15:32;;;;;;;19.33;8.77;;;23.00;99.90;;;;;;6131518;28;89073;-64
2022/09/16 13:18:43;;;;;;;24.27;9.70;;;23.00;99.90;;;;;;6121700;28;88327;-64
2022/09/16 13:21:47;;;;;;;20.70;8.93;;;23.00;99.90;;;;;;6131256;28;89250;-64
2022/09/16 13:24:53;;;;;;;21.15;8.70;;;23.00;99.90;;;;;;6127560;28;89305;-64
2022/09/16 13:27:58;;;;;;;19.85;8.82;;;23.00;99.90;;;;;;6127663;28;90099;-64
2022/09/16 13:31:17;;;;;;;22.05;9.52;;;23.00;99.90;;;;;;6129335;28;89169;-64
2022/09/16 13:34:19;;;;;;;19.10;8.25;;;23.00;99.90;;;;;;6132719;28;88717;-65
2022/09/16 13:37:26;;;;;;;17.45;8.52;;;23.00;99.90;;;;;;6131967;28;89234;-64
2022/09/16 13:40:31;;;;;;;16.48;8.10;;;23.00;99.90;;;;;;6133929;28;89137;-64
2022/09/16 13:43:50;;;;;;;17.95;8.00;;;22.90;99.90;;;;;;6133295;28;89296;-64
2022/09/16 13:46:53;;;;;;;15.77;7.93;;;23.00;99.90;;;;;;6131005;28;90747;-64
2022/09/16 13:49:59;;;;;;;16.65;7.57;;;23.00;99.90;;;;;;6135705;28;88514;-64
2022/09/16 13:53:10;;;;;;;15.80;8.20;;;22.90;99.90;;;;;;6132035;28;89214;-64
2022/09/16 13:56:29;;;;;;;15.85;7.72;;;22.90;99.90;;;;;;6130749;28;89147;-64
2022/09/16 13:59:44;;;;;;;15.95;7.53;;;22.90;99.90;;;;;;6128977;28;89996;-65
2022/09/16 14:03:02;;;;;;;17.48;6.97;;;23.00;99.90;;;;;;6126582;28;89101;-63
2022/09/16 14:06:39;;;;;;;13.77;7.10;;;22.90;99.90;;;;;;6125158;28;89380;-63
2022/09/16 14:09:48;;;;;;;19.25;7.78;;;22.90;99.90;;;;;;6116966;28;89212;-64
2022/09/16 14:13:02;;;;;;;14.25;7.18;;;22.90;99.90;;;;;;6128169;28;88904;-63
2022/09/16 14:16:05;;;;;;;14.52;6.45;;;22.90;99.90;;;;;;6125273;28;88029;-63
2022/09/16 14:19:22;;;;;;;13.02;6.50;;;22.90;99.90;;;;;;6133795;28;89143;-64
2022/09/16 14:22:26;;;;;;;15.05;7.13;;;22.90;99.90;;;;;;6133942;28;88519;-63
2022/09/16 14:25:30;;;;;;;15.10;7.00;;;22.80;99.90;;;;;;6132029;28;89016;-63
2022/09/16 14:28:32;;;;;;;12.15;6.75;;;22.80;99.90;;;;;;6133703;28;88733;-63
2022/09/16 14:31:34;;;;;;;13.27;6.47;;;22.80;99.90;;;;;;6134130;28;90328;-63
2022/09/16 14:34:38;;;;;;;10.73;5.90;;;22.80;99.90;;;;;;6132705;28;89094;-64
2022/09/16 14:37:40;;;;;;;14.02;5.95;;;22.90;99.90;;;;;;6132363;28;89047;-64
2022/09/16 14:40:42;;;;;;;12.20;6.28;;;22.90;99.90;;;;;;6131499;28;89229;-64
2022/09/16 14:43:44;;;;;;;11.77;6.10;;;22.80;99.90;;;;;;6133106;28;89372;-64
2022/09/16 14:46:54;;;;;;;11.45;6.30;;;22.80;99.90;;;;;;6123609;28;89326;-64
2022/09/16 14:50:04;;;;;;;13.15;6.15;;;22.80;99.90;;;;;;6133417;28;88468;-64
2022/09/16 14:53:22;;;;;;;10.35;5.47;;;22.80;99.90;;;;;;6121372;28;88459;-64
2022/09/16 14:56:25;;;;;;;10.93;5.82;;;22.80;99.90;;;;;;6125834;28;89253;-64
2022/09/16 14:59:30;;;;;;;10.18;6.05;;;22.80;99.90;;;;;;6124673;28;89126;-64
2022/09/16 15:02:37;;;;;;;9.60;5.47;;;22.80;99.90;;;;;;6118892;28;88913;-64
2022/09/16 15:05:44;;;;;;;11.60;5.85;;;22.80;99.90;;;;;;6133089;28;89127;-64
2022/09/16 15:08:49;;;;;;;10.88;5.35;;;22.70;99.90;;;;;;6122462;28;89302;-64
2022/09/16 15:11:56;;;;;;;9.25;5.30;;;22.70;99.90;;;;;;6133769;28;89142;-64
2022/09/16 15:14:58;;;;;;;9.43;5.20;;;22.70;99.90;;;;;;6132592;28;89178;-64
2022/09/16 15:18:02;;;;;;;11.85;5.63;;;22.70;99.90;;;;;;6131496;28;90125;-64
2022/09/16 15:21:10;;;;;;;8.32;5.18;;;22.70;99.90;;;;;;6132856;28;89099;-64
2022/09/16 15:24:17;;;;;;;10.43;5.22;;;22.70;99.90;;;;;;6132148;28;88299;-64
2022/09/16 15:27:24;;;;;;;9.52;5.28;;;22.70;99.90;;;;;;6126091;28;89257;-64
2022/09/16 15:30:27;;;;;;;10.75;4.97;;;22.70;99.90;;;;;;6125997;28;87936;-63
2022/09/16 15:33:34;;;;;;;8.55;4.85;;;22.70;99.90;;;;;;6128778;28;90054;-64
2022/09/16 15:36:39;;;;;;;7.18;4.78;;;22.70;99.90;;;;;;6131345;28;89163;-64
2022/09/16 15:39:41;;;;;;;9.68;4.60;;;22.70;99.90;;;;;;6132743;28;89068;-63
2022/09/16 15:42:44;;;;;;;7.97;4.80;;;22.70;99.90;;;;;;6130908;28;88163;-64
2022/09/16 15:45:58;;;;;;;9.00;4.63;;;22.70;99.90;;;;;;6132424;28;89118;-64
2022/09/16 15:49:01;;;;;;;9.02;4.95;;;22.60;99.90;;;;;;6126159;28;87979;-63
2022/09/16 15:52:10;;;;;;;8.95;4.78;;;22.60;99.90;;;;;;6126759;28;89068;-64
2022/09/16 15:55:12;;;;;;;8.65;4.78;;;22.60;99.90;;;;;;6132647;28;88390;-64
2022/09/16 15:58:19;;;;;;;7.82;4.88;;;22.60;99.90;;;;;;6132651;28;89159;-64
2022/09/16 16:01:36;;;;;;;7.55;4.70;;;22.60;99.90;;;;;;6132006;28;89113;-64
2022/09/16 16:04:38;;;;;;;6.68;4.35;;;22.60;99.90;;;;;;6129557;28;91611;-63
2022/09/16 16:07:45;;;;;;;7.50;4.68;;;22.60;99.90;;;;;;6126891;28;89144;-64
2022/09/16 16:11:06;;;;;;;8.40;4.75;;;22.60;99.90;;;;;;6127690;28;89080;-64
2022/09/16 16:14:08;;;;;;;8.48;4.78;;;22.60;99.90;;;;;;6127038;28;89102;-64